sensor_id;sensor_type;location;lat;lon;timestamp;temperature;humidity
45012;DHT22;63444;48.148;11.542;2024-03-02T00:00:43;8.20;99.90
45012;DHT22;63444;48.148;11.542;2024-03-02T00:03:08;8.20;99.90
45012;DHT22;63444;48.148;11.542;2024-03-02T00:05:37;8.20;99.90
45012;DHT22;63444;48.148;11.542;2024-03-02T00:08:04;8.20;99.90
45012;DHT22;63444;48.148;11.542;2024-03-02T00:10:38;8.20;99.90
45012;DHT22;63444;48.148;11.542;2024-03-02T00:13:07;8.20;99.90
45012;DHT22;63444;48.148;11.542;2024-03-02T00:15:51;8.20;99.90
45012;DHT22;63444;48.148;11.542;2024-03-02T00:18:24;8.10;99.90
45012;DHT22;63444;48.148;11.542;2024-03-02T00:20:56;8.10;99.90
45012;DHT22;63444;48.148;11.542;2024-03-02T00:23:23;8.10;99.90
45012;DHT22;63444;48.148;11.542;2024-03-02T00:25:55;8.10;99.90
45012;DHT22;63444;48.148;11.542;2024-03-02T00:28:22;8.10;99.90
45012;DHT22;63444;48.148;11.542;2024-03-02T00:31:09;8.10;99.90
45012;DHT22;63444;48.148;11.542;2024-03-02T00:36:04;8.10;99.90
45012;DHT22;63444;48.148;11.542;2024-03-02T00:38:31;8.10;99.90
45012;DHT22;63444;48.148;11.542;2024-03-02T00:40:59;8.00;99.90
45012;DHT22;63444;48.148;11.542;2024-03-02T00:43:42;8.00;99.90
45012;DHT22;63444;48.148;11.542;2024-03-02T00:46:10;8.00;99.90
45012;DHT22;63444;48.148;11.542;2024-03-02T00:48:36;8.00;99.90
45012;DHT22;63444;48.148;11.542;2024-03-02T00:51:03;8.00;99.90
45012;DHT22;63444;48.148;11.542;2024-03-02T00:53:30;8.00;99.90
45012;DHT22;63444;48.148;11.542;2024-03-02T00:55:56;8.00;99.90
45012;DHT22;63444;48.148;11.542;2024-03-02T00:58:22;8.00;99.90
45012;DHT22;63444;48.148;11.542;2024-03-02T01:00:48;8.00;99.90
45012;DHT22;63444;48.148;11.542;2024-03-02T01:03:13;8.00;99.90
45012;DHT22;63444;48.148;11.542;2024-03-02T01:05:42;7.90;99.90
45012;DHT22;63444;48.148;11.542;2024-03-02T01:08:09;8.00;99.90
45012;DHT22;63444;48.148;11.542;2024-03-02T01:10:35;8.00;99.90
45012;DHT22;63444;48.148;11.542;2024-03-02T01:13:01;8.00;99.90
45012;DHT22;63444;48.148;11.542;2024-03-02T01:15:26;8.00;99.90
45012;DHT22;63444;48.148;11.542;2024-03-02T01:17:52;8.00;99.90
45012;DHT22;63444;48.148;11.542;2024-03-02T01:20:18;7.90;99.90
45012;DHT22;63444;48.148;11.542;2024-03-02T01:22:43;7.90;99.90
45012;DHT22;63444;48.148;11.542;2024-03-02T01:25:09;7.90;99.90
45012;DHT22;63444;48.148;11.542;2024-03-02T01:27:35;7.90;99.90
45012;DHT22;63444;48.148;11.542;2024-03-02T01:30:01;8.00;99.90
45012;DHT22;63444;48.148;11.542;2024-03-02T01:32:26;7.90;99.90
45012;DHT22;63444;48.148;11.542;2024-03-02T01:34:52;7.90;99.90
45012;DHT22;63444;48.148;11.542;2024-03-02T01:37:18;7.90;99.90
45012;DHT22;63444;48.148;11.542;2024-03-02T01:39:43;7.90;99.90
45012;DHT22;63444;48.148;11.542;2024-03-02T01:42:09;7.90;99.90
45012;DHT22;63444;48.148;11.542;2024-03-02T01:44:36;7.90;99.90
45012;DHT22;63444;48.148;11.542;2024-03-02T01:47:02;7.90;99.90
45012;DHT22;63444;48.148;11.542;2024-03-02T01:49:27;7.90;99.90
45012;DHT22;63444;48.148;11.542;2024-03-02T01:51:53;7.90;99.90
45012;DHT22;63444;48.148;11.542;2024-03-02T01:54:18;7.90;99.90
45012;DHT22;63444;48.148;11.542;2024-03-02T01:56:44;7.90;99.90
45012;DHT22;63444;48.148;11.542;2024-03-02T01:59:10;7.90;99.90
45012;DHT22;63444;48.148;11.542;2024-03-02T02:01:36;7.90;99.90
45012;DHT22;63444;48.148;11.542;2024-03-02T02:04:02;7.90;99.90
45012;DHT22;63444;48.148;11.542;2024-03-02T02:06:28;7.80;99.90
45012;DHT22;63444;48.148;11.542;2024-03-02T02:08:53;7.90;99.90
45012;DHT22;63444;48.148;11.542;2024-03-02T02:11:19;7.80;99.90
45012;DHT22;63444;48.148;11.542;2024-03-02T02:13:44;7.70;99.90
45012;DHT22;63444;48.148;11.542;2024-03-02T02:16:10;7.70;99.90
45012;DHT22;63444;48.148;11.542;2024-03-02T02:18:36;7.80;99.90
45012;DHT22;63444;48.148;11.542;2024-03-02T02:21:02;7.80;99.90
45012;DHT22;63444;48.148;11.542;2024-03-02T02:23:29;7.70;99.90
45012;DHT22;63444;48.148;11.542;2024-03-02T02:25:54;7.60;99.90
45012;DHT22;63444;48.148;11.542;2024-03-02T02:28:20;7.70;99.90
45012;DHT22;63444;48.148;11.542;2024-03-02T02:30:46;7.70;99.90
45012;DHT22;63444;48.148;11.542;2024-03-02T02:33:11;7.70;99.90
45012;DHT22;63444;48.148;11.542;2024-03-02T02:35:37;7.70;99.90
45012;DHT22;63444;48.148;11.542;2024-03-02T02:38:03;7.70;99.90
45012;DHT22;63444;48.148;11.542;2024-03-02T02:40:29;7.70;99.90
45012;DHT22;63444;48.148;11.542;2024-03-02T02:42:56;7.70;99.90
45012;DHT22;63444;48.148;11.542;2024-03-02T02:45:22;7.70;99.90
45012;DHT22;63444;48.148;11.542;2024-03-02T02:47:49;7.80;99.90
45012;DHT22;63444;48.148;11.542;2024-03-02T02:50:15;7.80;99.90
45012;DHT22;63444;48.148;11.542;2024-03-02T02:52:41;7.80;99.90
45012;DHT22;63444;48.148;11.542;2024-03-02T02:55:09;7.90;99.90
45012;DHT22;63444;48.148;11.542;2024-03-02T02:57:35;7.90;99.90
45012;DHT22;63444;48.148;11.542;2024-03-02T03:00:06;7.80;99.90
45012;DHT22;63444;48.148;11.542;2024-03-02T03:02:36;7.80;99.90
45012;DHT22;63444;48.148;11.542;2024-03-02T03:05:02;7.90;99.90
45012;DHT22;63444;48.148;11.542;2024-03-02T03:07:27;7.90;99.90
45012;DHT22;63444;48.148;11.542;2024-03-02T03:09:53;7.90;99.90
45012;DHT22;63444;48.148;11.542;2024-03-02T03:12:18;7.90;99.90
45012;DHT22;63444;48.148;11.542;2024-03-02T03:14:44;7.90;99.90
45012;DHT22;63444;48.148;11.542;2024-03-02T03:17:10;7.90;99.90
45012;DHT22;63444;48.148;11.542;2024-03-02T03:19:37;7.90;99.90
45012;DHT22;63444;48.148;11.542;2024-03-02T03:22:03;7.90;99.90
45012;DHT22;63444;48.148;11.542;2024-03-02T03:24:29;7.90;99.90
45012;DHT22;63444;48.148;11.542;2024-03-02T03:26:54;7.90;99.90
45012;DHT22;63444;48.148;11.542;2024-03-02T03:29:20;8.00;99.90
45012;DHT22;63444;48.148;11.542;2024-03-02T03:31:45;7.90;99.90
45012;DHT22;63444;48.148;11.542;2024-03-02T03:34:11;8.00;99.90
45012;DHT22;63444;48.148;11.542;2024-03-02T03:36:41;8.00;99.90
45012;DHT22;63444;48.148;11.542;2024-03-02T03:39:07;8.00;99.90
45012;DHT22;63444;48.148;11.542;2024-03-02T03:41:32;8.00;99.90
45012;DHT22;63444;48.148;11.542;2024-03-02T03:43:58;8.00;99.90
45012;DHT22;63444;48.148;11.542;2024-03-02T03:46:24;8.00;99.90
45012;DHT22;63444;48.148;11.542;2024-03-02T03:48:49;8.00;99.90
45012;DHT22;63444;48.148;11.542;2024-03-02T03:51:15;8.00;99.90
45012;DHT22;63444;48.148;11.542;2024-03-02T03:53:40;8.00;99.90
45012;DHT22;63444;48.148;11.542;2024-03-02T03:56:06;8.00;99.90
45012;DHT22;63444;48.148;11.542;2024-03-02T03:58:31;8.10;99.90
45012;DHT22;63444;48.148;11.542;2024-03-02T04:00:57;8.10;99.90
45012;DHT22;63444;48.148;11.542;2024-03-02T04:03:23;8.00;99.90
45012;DHT22;63444;48.148;11.542;2024-03-02T04:05:48;8.00;99.90
45012;DHT22;63444;48.148;11.542;2024-03-02T04:08:14;8.00;99.90
45012;DHT22;63444;48.148;11.542;2024-03-02T04:10:39;8.00;99.90
45012;DHT22;63444;48.148;11.542;2024-03-02T04:13:07;8.00;99.90
45012;DHT22;63444;48.148;11.542;2024-03-02T04:15:33;8.00;99.90
45012;DHT22;63444;48.148;11.542;2024-03-02T04:17:58;8.00;99.90
45012;DHT22;63444;48.148;11.542;2024-03-02T04:20:24;8.00;99.90
45012;DHT22;63444;48.148;11.542;2024-03-02T04:22:50;7.90;99.90
45012;DHT22;63444;48.148;11.542;2024-03-02T04:25:16;7.90;99.90
45012;DHT22;63444;48.148;11.542;2024-03-02T04:27:42;7.90;99.90
45012;DHT22;63444;48.148;11.542;2024-03-02T04:30:07;7.90;99.90
45012;DHT22;63444;48.148;11.542;2024-03-02T04:32:33;7.90;99.90
45012;DHT22;63444;48.148;11.542;2024-03-02T04:34:59;7.90;99.90
45012;DHT22;63444;48.148;11.542;2024-03-02T04:37:24;7.90;99.90
45012;DHT22;63444;48.148;11.542;2024-03-02T04:39:50;7.90;99.90
45012;DHT22;63444;48.148;11.542;2024-03-02T04:42:16;7.90;99.90
45012;DHT22;63444;48.148;11.542;2024-03-02T04:44:41;7.90;99.90
45012;DHT22;63444;48.148;11.542;2024-03-02T04:47:07;7.90;99.90
45012;DHT22;63444;48.148;11.542;2024-03-02T04:49:33;7.90;99.90
45012;DHT22;63444;48.148;11.542;2024-03-02T04:51:59;7.90;99.90
45012;DHT22;63444;48.148;11.542;2024-03-02T04:54:24;7.90;99.90
45012;DHT22;63444;48.148;11.542;2024-03-02T04:56:50;7.90;99.90
45012;DHT22;63444;48.148;11.542;2024-03-02T04:59:16;8.00;99.90
45012;DHT22;63444;48.148;11.542;2024-03-02T05:01:42;7.90;99.90
45012;DHT22;63444;48.148;11.542;2024-03-02T05:04:08;7.90;99.90
45012;DHT22;63444;48.148;11.542;2024-03-02T05:06:39;8.00;99.90
45012;DHT22;63444;48.148;11.542;2024-03-02T05:09:06;8.00;99.90
45012;DHT22;63444;48.148;11.542;2024-03-02T05:11:32;8.00;99.90
45012;DHT22;63444;48.148;11.542;2024-03-02T05:14:17;8.00;99.90
45012;DHT22;63444;48.148;11.542;2024-03-02T05:16:43;8.00;99.90
45012;DHT22;63444;48.148;11.542;2024-03-02T05:19:08;8.00;99.90
45012;DHT22;63444;48.148;11.542;2024-03-02T05:21:34;8.00;99.90
45012;DHT22;63444;48.148;11.542;2024-03-02T05:24:00;8.00;99.90
45012;DHT22;63444;48.148;11.542;2024-03-02T05:26:26;7.90;99.90
45012;DHT22;63444;48.148;11.542;2024-03-02T05:28:51;8.00;99.90
45012;DHT22;63444;48.148;11.542;2024-03-02T05:31:17;8.00;99.90
45012;DHT22;63444;48.148;11.542;2024-03-02T05:33:43;8.00;99.90
45012;DHT22;63444;48.148;11.542;2024-03-02T05:36:09;8.00;99.90
45012;DHT22;63444;48.148;11.542;2024-03-02T05:38:35;8.00;99.90
45012;DHT22;63444;48.148;11.542;2024-03-02T05:41:01;8.00;99.90
45012;DHT22;63444;48.148;11.542;2024-03-02T05:43:26;8.00;99.90
45012;DHT22;63444;48.148;11.542;2024-03-02T05:45:52;8.00;99.90
45012;DHT22;63444;48.148;11.542;2024-03-02T05:48:18;8.00;99.90
45012;DHT22;63444;48.148;11.542;2024-03-02T05:50:43;8.00;99.90
45012;DHT22;63444;48.148;11.542;2024-03-02T05:53:09;8.00;99.90
45012;DHT22;63444;48.148;11.542;2024-03-02T05:55:34;8.10;99.90
45012;DHT22;63444;48.148;11.542;2024-03-02T05:58:00;8.10;99.90
45012;DHT22;63444;48.148;11.542;2024-03-02T06:00:32;8.10;99.90
45012;DHT22;63444;48.148;11.542;2024-03-02T06:02:58;8.00;99.90
45012;DHT22;63444;48.148;11.542;2024-03-02T06:05:24;8.00;99.90
45012;DHT22;63444;48.148;11.542;2024-03-02T06:07:50;8.00;99.90
45012;DHT22;63444;48.148;11.542;2024-03-02T06:10:16;8.00;99.90
45012;DHT22;63444;48.148;11.542;2024-03-02T06:12:42;8.00;99.90
45012;DHT22;63444;48.148;11.542;2024-03-02T06:15:07;8.00;99.90
45012;DHT22;63444;48.148;11.542;2024-03-02T06:17:35;8.00;99.90
45012;DHT22;63444;48.148;11.542;2024-03-02T06:20:01;8.10;99.90
45012;DHT22;63444;48.148;11.542;2024-03-02T06:22:26;8.00;99.90
45012;DHT22;63444;48.148;11.542;2024-03-02T06:24:52;8.00;99.90
45012;DHT22;63444;48.148;11.542;2024-03-02T06:27:18;8.00;99.90
45012;DHT22;63444;48.148;11.542;2024-03-02T06:29:43;8.10;99.90
45012;DHT22;63444;48.148;11.542;2024-03-02T06:32:09;8.10;99.90
45012;DHT22;63444;48.148;11.542;2024-03-02T06:34:34;8.00;99.90
45012;DHT22;63444;48.148;11.542;2024-03-02T06:37:00;8.00;99.90
45012;DHT22;63444;48.148;11.542;2024-03-02T06:39:26;8.00;99.90
45012;DHT22;63444;48.148;11.542;2024-03-02T06:41:52;8.00;99.90
45012;DHT22;63444;48.148;11.542;2024-03-02T06:44:17;8.00;99.90
45012;DHT22;63444;48.148;11.542;2024-03-02T06:46:43;8.10;99.90
45012;DHT22;63444;48.148;11.542;2024-03-02T06:49:08;8.10;99.90
45012;DHT22;63444;48.148;11.542;2024-03-02T06:51:36;8.10;99.90
45012;DHT22;63444;48.148;11.542;2024-03-02T06:54:02;8.10;99.90
45012;DHT22;63444;48.148;11.542;2024-03-02T06:56:27;8.10;99.90
45012;DHT22;63444;48.148;11.542;2024-03-02T06:58:53;8.20;99.90
45012;DHT22;63444;48.148;11.542;2024-03-02T07:01:19;8.20;99.90
45012;DHT22;63444;48.148;11.542;2024-03-02T07:03:46;8.20;99.90
45012;DHT22;63444;48.148;11.542;2024-03-02T07:06:11;8.20;99.90
45012;DHT22;63444;48.148;11.542;2024-03-02T07:08:37;8.30;99.90
45012;DHT22;63444;48.148;11.542;2024-03-02T07:11:02;8.30;99.90
45012;DHT22;63444;48.148;11.542;2024-03-02T07:13:28;8.30;99.90
45012;DHT22;63444;48.148;11.542;2024-03-02T07:15:54;8.30;99.90
45012;DHT22;63444;48.148;11.542;2024-03-02T07:18:29;8.30;99.90
45012;DHT22;63444;48.148;11.542;2024-03-02T07:20:56;8.40;99.90
45012;DHT22;63444;48.148;11.542;2024-03-02T07:23:24;8.40;99.90
45012;DHT22;63444;48.148;11.542;2024-03-02T07:25:52;8.50;99.90
45012;DHT22;63444;48.148;11.542;2024-03-02T07:28:22;8.50;99.90
45012;DHT22;63444;48.148;11.542;2024-03-02T07:30:57;8.50;99.90
45012;DHT22;63444;48.148;11.542;2024-03-02T07:33:24;8.50;99.90
45012;DHT22;63444;48.148;11.542;2024-03-02T07:35:49;8.60;99.90
45012;DHT22;63444;48.148;11.542;2024-03-02T07:38:15;8.60;99.90
45012;DHT22;63444;48.148;11.542;2024-03-02T07:40:41;8.70;99.90
45012;DHT22;63444;48.148;11.542;2024-03-02T07:43:07;8.70;99.90
45012;DHT22;63444;48.148;11.542;2024-03-02T07:45:34;8.80;99.90
45012;DHT22;63444;48.148;11.542;2024-03-02T07:48:01;8.80;99.90
45012;DHT22;63444;48.148;11.542;2024-03-02T07:50:29;8.90;99.90
45012;DHT22;63444;48.148;11.542;2024-03-02T07:52:55;8.90;99.90
45012;DHT22;63444;48.148;11.542;2024-03-02T07:55:21;9.00;99.90
45012;DHT22;63444;48.148;11.542;2024-03-02T07:57:49;9.10;99.90
45012;DHT22;63444;48.148;11.542;2024-03-02T08:00:15;9.10;99.90
45012;DHT22;63444;48.148;11.542;2024-03-02T08:02:41;9.20;99.90
45012;DHT22;63444;48.148;11.542;2024-03-02T08:05:09;9.20;99.90
45012;DHT22;63444;48.148;11.542;2024-03-02T08:07:35;9.20;99.90
45012;DHT22;63444;48.148;11.542;2024-03-02T08:10:00;9.20;99.90
45012;DHT22;63444;48.148;11.542;2024-03-02T08:12:26;9.20;99.90
45012;DHT22;63444;48.148;11.542;2024-03-02T08:14:52;9.20;99.90
45012;DHT22;63444;48.148;11.542;2024-03-02T08:17:17;9.20;99.90
45012;DHT22;63444;48.148;11.542;2024-03-02T08:19:44;9.20;99.90
45012;DHT22;63444;48.148;11.542;2024-03-02T08:22:10;9.30;99.90
45012;DHT22;63444;48.148;11.542;2024-03-02T08:24:36;9.20;99.90
45012;DHT22;63444;48.148;11.542;2024-03-02T08:27:02;9.30;99.90
45012;DHT22;63444;48.148;11.542;2024-03-02T08:29:27;9.40;99.90
45012;DHT22;63444;48.148;11.542;2024-03-02T08:31:53;9.40;99.90
45012;DHT22;63444;48.148;11.542;2024-03-02T08:34:19;9.50;99.90
45012;DHT22;63444;48.148;11.542;2024-03-02T08:36:46;9.60;99.90
45012;DHT22;63444;48.148;11.542;2024-03-02T08:39:12;9.60;99.90
45012;DHT22;63444;48.148;11.542;2024-03-02T08:41:45;9.70;99.90
45012;DHT22;63444;48.148;11.542;2024-03-02T08:44:11;9.80;99.90
45012;DHT22;63444;48.148;11.542;2024-03-02T08:46:38;9.90;99.90
45012;DHT22;63444;48.148;11.542;2024-03-02T08:49:04;10.00;99.90
45012;DHT22;63444;48.148;11.542;2024-03-02T08:51:30;10.00;99.90
45012;DHT22;63444;48.148;11.542;2024-03-02T08:53:56;10.20;99.90
45012;DHT22;63444;48.148;11.542;2024-03-02T08:56:21;10.30;99.90
45012;DHT22;63444;48.148;11.542;2024-03-02T08:58:49;10.40;99.90
45012;DHT22;63444;48.148;11.542;2024-03-02T09:01:15;10.50;99.90
45012;DHT22;63444;48.148;11.542;2024-03-02T09:03:41;10.70;99.90
45012;DHT22;63444;48.148;11.542;2024-03-02T09:06:10;10.90;99.90
45012;DHT22;63444;48.148;11.542;2024-03-02T09:08:35;11.00;99.90
45012;DHT22;63444;48.148;11.542;2024-03-02T09:11:02;11.20;99.90
45012;DHT22;63444;48.148;11.542;2024-03-02T09:13:29;11.30;99.90
45012;DHT22;63444;48.148;11.542;2024-03-02T09:15:54;11.50;99.90
45012;DHT22;63444;48.148;11.542;2024-03-02T09:18:20;11.60;99.90
45012;DHT22;63444;48.148;11.542;2024-03-02T09:20:46;11.70;99.90
45012;DHT22;63444;48.148;11.542;2024-03-02T09:23:12;11.80;99.90
45012;DHT22;63444;48.148;11.542;2024-03-02T09:25:37;11.90;99.90
45012;DHT22;63444;48.148;11.542;2024-03-02T09:28:03;12.00;99.90
45012;DHT22;63444;48.148;11.542;2024-03-02T09:30:29;12.10;99.90
45012;DHT22;63444;48.148;11.542;2024-03-02T09:32:54;12.20;99.90
45012;DHT22;63444;48.148;11.542;2024-03-02T09:35:20;12.30;99.90
45012;DHT22;63444;48.148;11.542;2024-03-02T09:37:45;12.40;99.90
45012;DHT22;63444;48.148;11.542;2024-03-02T09:40:12;12.40;99.90
45012;DHT22;63444;48.148;11.542;2024-03-02T09:42:39;12.30;99.90
45012;DHT22;63444;48.148;11.542;2024-03-02T09:45:05;12.30;99.90
45012;DHT22;63444;48.148;11.542;2024-03-02T09:47:31;12.40;99.90
45012;DHT22;63444;48.148;11.542;2024-03-02T09:49:57;12.40;99.90
45012;DHT22;63444;48.148;11.542;2024-03-02T09:52:23;12.40;99.90
45012;DHT22;63444;48.148;11.542;2024-03-02T09:54:49;12.40;99.90
45012;DHT22;63444;48.148;11.542;2024-03-02T09:57:15;12.50;99.90
45012;DHT22;63444;48.148;11.542;2024-03-02T09:59:41;12.50;99.90
45012;DHT22;63444;48.148;11.542;2024-03-02T10:02:07;12.60;99.90
45012;DHT22;63444;48.148;11.542;2024-03-02T10:04:33;12.70;99.90
45012;DHT22;63444;48.148;11.542;2024-03-02T10:07:16;12.80;99.90
45012;DHT22;63444;48.148;11.542;2024-03-02T10:09:43;12.90;99.90
45012;DHT22;63444;48.148;11.542;2024-03-02T10:12:11;12.90;99.90
45012;DHT22;63444;48.148;11.542;2024-03-02T10:14:40;13.00;99.90
45012;DHT22;63444;48.148;11.542;2024-03-02T10:17:09;13.00;99.90
45012;DHT22;63444;48.148;11.542;2024-03-02T10:19:35;13.10;99.90
45012;DHT22;63444;48.148;11.542;2024-03-02T10:22:09;13.20;99.90
45012;DHT22;63444;48.148;11.542;2024-03-02T10:24:40;13.30;99.90
45012;DHT22;63444;48.148;11.542;2024-03-02T10:27:07;13.30;99.90
45012;DHT22;63444;48.148;11.542;2024-03-02T10:29:39;13.30;99.90
45012;DHT22;63444;48.148;11.542;2024-03-02T10:32:05;13.40;99.90
45012;DHT22;63444;48.148;11.542;2024-03-02T10:34:33;13.40;99.90
45012;DHT22;63444;48.148;11.542;2024-03-02T10:36:59;13.50;99.90
45012;DHT22;63444;48.148;11.542;2024-03-02T10:39:26;13.60;99.90
45012;DHT22;63444;48.148;11.542;2024-03-02T10:41:52;13.60;99.90
45012;DHT22;63444;48.148;11.542;2024-03-02T10:44:19;13.60;99.90
45012;DHT22;63444;48.148;11.542;2024-03-02T10:46:45;13.70;99.90
45012;DHT22;63444;48.148;11.542;2024-03-02T10:49:12;13.80;99.90
45012;DHT22;63444;48.148;11.542;2024-03-02T10:51:38;13.80;99.90
45012;DHT22;63444;48.148;11.542;2024-03-02T10:54:04;13.90;99.90
45012;DHT22;63444;48.148;11.542;2024-03-02T10:56:31;13.90;99.90
45012;DHT22;63444;48.148;11.542;2024-03-02T11:01:43;13.90;99.90
45012;DHT22;63444;48.148;11.542;2024-03-02T11:04:09;13.80;99.90
45012;DHT22;63444;48.148;11.542;2024-03-02T11:06:38;13.70;99.90
45012;DHT22;63444;48.148;11.542;2024-03-02T11:09:07;13.70;99.90
45012;DHT22;63444;48.148;11.542;2024-03-02T11:11:43;13.80;99.90
45012;DHT22;63444;48.148;11.542;2024-03-02T11:14:13;14.00;99.90
45012;DHT22;63444;48.148;11.542;2024-03-02T11:16:39;14.10;99.90
45012;DHT22;63444;48.148;11.542;2024-03-02T11:19:11;14.20;99.90
45012;DHT22;63444;48.148;11.542;2024-03-02T11:21:38;14.30;99.90
45012;DHT22;63444;48.148;11.542;2024-03-02T11:24:36;14.40;99.90
45012;DHT22;63444;48.148;11.542;2024-03-02T11:27:03;14.50;99.90
45012;DHT22;63444;48.148;11.542;2024-03-02T11:32:19;14.50;99.90
45012;DHT22;63444;48.148;11.542;2024-03-02T11:34:48;14.60;99.90
45012;DHT22;63444;48.148;11.542;2024-03-02T11:37:15;14.70;99.90
45012;DHT22;63444;48.148;11.542;2024-03-02T11:39:41;14.80;99.90
45012;DHT22;63444;48.148;11.542;2024-03-02T11:42:08;14.80;99.90
45012;DHT22;63444;48.148;11.542;2024-03-02T11:44:37;14.70;99.90
45012;DHT22;63444;48.148;11.542;2024-03-02T11:47:07;14.70;99.90
45012;DHT22;63444;48.148;11.542;2024-03-02T11:49:49;14.60;99.90
45012;DHT22;63444;48.148;11.542;2024-03-02T11:52:16;14.60;99.90
45012;DHT22;63444;48.148;11.542;2024-03-02T11:54:46;14.60;99.90
45012;DHT22;63444;48.148;11.542;2024-03-02T11:57:17;14.60;99.90
45012;DHT22;63444;48.148;11.542;2024-03-02T11:59:43;14.70;99.90
45012;DHT22;63444;48.148;11.542;2024-03-02T12:02:18;14.80;99.90
45012;DHT22;63444;48.148;11.542;2024-03-02T12:04:44;14.90;99.90
45012;DHT22;63444;48.148;11.542;2024-03-02T12:07:11;14.90;99.90
45012;DHT22;63444;48.148;11.542;2024-03-02T12:09:37;14.90;99.90
45012;DHT22;63444;48.148;11.542;2024-03-02T12:12:06;14.90;99.90
45012;DHT22;63444;48.148;11.542;2024-03-02T12:14:33;14.90;99.90
45012;DHT22;63444;48.148;11.542;2024-03-02T12:16:59;14.90;99.90
45012;DHT22;63444;48.148;11.542;2024-03-02T12:19:26;14.90;99.90
45012;DHT22;63444;48.148;11.542;2024-03-02T12:21:53;14.90;99.90
45012;DHT22;63444;48.148;11.542;2024-03-02T12:24:18;14.90;99.90
45012;DHT22;63444;48.148;11.542;2024-03-02T12:26:44;14.80;99.90
45012;DHT22;63444;48.148;11.542;2024-03-02T12:29:10;14.70;99.90
45012;DHT22;63444;48.148;11.542;2024-03-02T12:31:36;14.60;99.90
45012;DHT22;63444;48.148;11.542;2024-03-02T12:34:03;14.60;99.90
45012;DHT22;63444;48.148;11.542;2024-03-02T12:36:29;14.50;99.90
45012;DHT22;63444;48.148;11.542;2024-03-02T12:38:55;14.50;99.90
45012;DHT22;63444;48.148;11.542;2024-03-02T12:41:21;14.40;99.90
45012;DHT22;63444;48.148;11.542;2024-03-02T12:43:46;14.40;99.90
45012;DHT22;63444;48.148;11.542;2024-03-02T12:46:12;14.40;99.90
45012;DHT22;63444;48.148;11.542;2024-03-02T12:48:38;14.40;99.90
45012;DHT22;63444;48.148;11.542;2024-03-02T12:51:06;14.40;99.90
45012;DHT22;63444;48.148;11.542;2024-03-02T12:53:32;14.30;99.90
45012;DHT22;63444;48.148;11.542;2024-03-02T12:55:58;14.20;99.90
45012;DHT22;63444;48.148;11.542;2024-03-02T12:58:24;14.20;99.90
45012;DHT22;63444;48.148;11.542;2024-03-02T13:00:49;14.10;99.90
45012;DHT22;63444;48.148;11.542;2024-03-02T13:03:18;14.10;99.90
45012;DHT22;63444;48.148;11.542;2024-03-02T13:05:49;13.90;99.90
45012;DHT22;63444;48.148;11.542;2024-03-02T13:08:15;13.90;99.90
45012;DHT22;63444;48.148;11.542;2024-03-02T13:10:41;13.90;99.90
45012;DHT22;63444;48.148;11.542;2024-03-02T13:13:07;13.90;99.90
45012;DHT22;63444;48.148;11.542;2024-03-02T13:15:33;13.90;99.90
45012;DHT22;63444;48.148;11.542;2024-03-02T13:18:00;13.70;99.90
45012;DHT22;63444;48.148;11.542;2024-03-02T13:20:33;13.70;99.90
45012;DHT22;63444;48.148;11.542;2024-03-02T13:22:59;13.70;99.90
45012;DHT22;63444;48.148;11.542;2024-03-02T13:25:25;13.60;99.90
45012;DHT22;63444;48.148;11.542;2024-03-02T13:27:51;13.60;99.90
45012;DHT22;63444;48.148;11.542;2024-03-02T13:30:17;13.60;99.90
45012;DHT22;63444;48.148;11.542;2024-03-02T13:32:42;13.60;99.90
45012;DHT22;63444;48.148;11.542;2024-03-02T13:35:08;13.60;99.90
45012;DHT22;63444;48.148;11.542;2024-03-02T13:37:36;13.50;99.90
45012;DHT22;63444;48.148;11.542;2024-03-02T13:40:02;13.50;99.90
45012;DHT22;63444;48.148;11.542;2024-03-02T13:42:30;13.40;99.90
45012;DHT22;63444;48.148;11.542;2024-03-02T13:44:55;13.30;99.90
45012;DHT22;63444;48.148;11.542;2024-03-02T13:47:21;13.30;99.90
45012;DHT22;63444;48.148;11.542;2024-03-02T13:49:47;13.30;99.90
45012;DHT22;63444;48.148;11.542;2024-03-02T13:52:14;13.10;99.90
45012;DHT22;63444;48.148;11.542;2024-03-02T13:54:46;13.10;99.90
45012;DHT22;63444;48.148;11.542;2024-03-02T13:57:12;13.10;99.90
45012;DHT22;63444;48.148;11.542;2024-03-02T13:59:38;13.10;99.90
45012;DHT22;63444;48.148;11.542;2024-03-02T14:02:08;13.10;99.90
45012;DHT22;63444;48.148;11.542;2024-03-02T14:04:34;13.10;99.90
45012;DHT22;63444;48.148;11.542;2024-03-02T14:07:01;13.10;99.90
45012;DHT22;63444;48.148;11.542;2024-03-02T14:09:27;13.10;99.90
45012;DHT22;63444;48.148;11.542;2024-03-02T14:11:53;13.10;99.90
45012;DHT22;63444;48.148;11.542;2024-03-02T14:14:19;13.10;99.90
45012;DHT22;63444;48.148;11.542;2024-03-02T14:16:45;13.10;99.90
45012;DHT22;63444;48.148;11.542;2024-03-02T14:19:11;13.10;99.90
45012;DHT22;63444;48.148;11.542;2024-03-02T14:21:38;13.10;99.90
45012;DHT22;63444;48.148;11.542;2024-03-02T14:24:04;13.10;99.90
45012;DHT22;63444;48.148;11.542;2024-03-02T14:26:29;13.20;99.90
45012;DHT22;63444;48.148;11.542;2024-03-02T14:28:55;13.20;99.90
45012;DHT22;63444;48.148;11.542;2024-03-02T14:31:21;13.20;99.90
45012;DHT22;63444;48.148;11.542;2024-03-02T14:33:47;13.10;99.90
45012;DHT22;63444;48.148;11.542;2024-03-02T14:36:13;13.10;99.90
45012;DHT22;63444;48.148;11.542;2024-03-02T14:38:39;13.20;99.90
45012;DHT22;63444;48.148;11.542;2024-03-02T14:41:04;13.20;99.90
45012;DHT22;63444;48.148;11.542;2024-03-02T14:43:30;13.20;99.90
45012;DHT22;63444;48.148;11.542;2024-03-02T14:45:56;13.30;99.90
45012;DHT22;63444;48.148;11.542;2024-03-02T14:48:22;13.30;99.90
45012;DHT22;63444;48.148;11.542;2024-03-02T14:50:48;13.20;99.90
45012;DHT22;63444;48.148;11.542;2024-03-02T14:53:13;13.20;99.90
45012;DHT22;63444;48.148;11.542;2024-03-02T14:55:39;13.20;99.90
45012;DHT22;63444;48.148;11.542;2024-03-02T14:58:05;13.20;99.90
45012;DHT22;63444;48.148;11.542;2024-03-02T15:00:30;13.20;99.90
45012;DHT22;63444;48.148;11.542;2024-03-02T15:02:56;13.20;99.90
45012;DHT22;63444;48.148;11.542;2024-03-02T15:05:22;13.20;99.90
45012;DHT22;63444;48.148;11.542;2024-03-02T15:07:48;13.20;99.90
45012;DHT22;63444;48.148;11.542;2024-03-02T15:10:13;13.20;99.90
45012;DHT22;63444;48.148;11.542;2024-03-02T15:12:39;13.20;99.90
45012;DHT22;63444;48.148;11.542;2024-03-02T15:15:05;13.20;99.90
45012;DHT22;63444;48.148;11.542;2024-03-02T15:17:31;13.10;99.90
45012;DHT22;63444;48.148;11.542;2024-03-02T15:19:56;13.10;99.90
45012;DHT22;63444;48.148;11.542;2024-03-02T15:22:22;13.10;99.90
45012;DHT22;63444;48.148;11.542;2024-03-02T15:24:48;13.10;99.90
45012;DHT22;63444;48.148;11.542;2024-03-02T15:27:13;13.10;99.90
45012;DHT22;63444;48.148;11.542;2024-03-02T15:29:39;13.10;99.90